<?xml version="1.0" encoding="utf-8"?>
<gpx xmlns:xsi="http://www.w3.org/2001/XMLSchema-instance" xmlns:xsd="http://www.w3.org/2001/XMLSchema" version="1.1" creator="Shapelink.com" xmlns="http://www.topografix.com/GPX/1/1" xmlns:gpxtpx="http://www.garmin.com/xmlschemas/TrackPointExtension/v1">
  <metadata>
    <name>Övrigt 1.26 km, 2019-04-18</name>
    <desc></desc>
    <author><name>Marian Moron</name></author> 
    <time>2019-04-18T23:50:02Z</time>
  </metadata>
  <trk>
    <name>Övrigt 1.26 km, 2019-04-18</name>
    <trkseg>
      <trkpt lat="51.229714393889" lon="4.458381392658">
        <ele>0</ele>
        <time>2019-04-18T23:50:02Z</time>
      </trkpt>
      <trkpt lat="51.229719590667" lon="4.458266812085">
        <ele>0</ele>
        <time>2019-04-18T23:50:04Z</time>
      </trkpt>
      <trkpt lat="51.229790752998" lon="4.457856937175">
        <ele>11.6</ele>
        <time>2019-04-18T23:50:20Z</time>
      </trkpt>
      <trkpt lat="51.229880020233" lon="4.458081404457">
        <ele>6.2</ele>
        <time>2019-04-18T23:50:47Z</time>
      </trkpt>
      <trkpt lat="51.229985967449" lon="4.458647182707">
        <ele>6.4</ele>
        <time>2019-04-18T23:51:41Z</time>
      </trkpt>
      <trkpt lat="51.230002982706" lon="4.458739551245">
        <ele>6.6</ele>
        <time>2019-04-18T23:51:49Z</time>
      </trkpt>
      <trkpt lat="51.230041371808" lon="4.4588522878">
        <ele>6.4</ele>
        <time>2019-04-18T23:52:01Z</time>
      </trkpt>
      <trkpt lat="51.23029769031" lon="4.458794871785">
        <ele>7.2</ele>
        <time>2019-04-18T23:52:34Z</time>
      </trkpt>
      <trkpt lat="51.230336163231" lon="4.458811719404">
        <ele>7.2</ele>
        <time>2019-04-18T23:52:38Z</time>
      </trkpt>
      <trkpt lat="51.230499861738" lon="4.458939208103">
        <ele>6.2</ele>
        <time>2019-04-18T23:52:55Z</time>
      </trkpt>
      <trkpt lat="51.230516206443" lon="4.459087903009">
        <ele>4.4</ele>
        <time>2019-04-18T23:53:17Z</time>
      </trkpt>
      <trkpt lat="51.230626009333" lon="4.459765160529">
        <ele>4.6</ele>
        <time>2019-04-18T23:53:56Z</time>
      </trkpt>
      <trkpt lat="51.230761963751" lon="4.459809836056">
        <ele>4.2</ele>
        <time>2019-04-18T23:54:13Z</time>
      </trkpt>
      <trkpt lat="51.23079389879" lon="4.459752587679">
        <ele>4</ele>
        <time>2019-04-18T23:54:18Z</time>
      </trkpt>
      <trkpt lat="51.230965979197" lon="4.459655441458">
        <ele>3.8</ele>
        <time>2019-04-18T23:54:43Z</time>
      </trkpt>
      <trkpt lat="51.231398904332" lon="4.459631720681">
        <ele>0</ele>
        <time>2019-04-18T23:55:36Z</time>
      </trkpt>
      <trkpt lat="51.231484651169" lon="4.459630714853">
        <ele>2.6</ele>
        <time>2019-04-18T23:55:45Z</time>
      </trkpt>
      <trkpt lat="51.23155916626" lon="4.459685867755">
        <ele>2</ele>
        <time>2019-04-18T23:55:53Z</time>
      </trkpt>
      <trkpt lat="51.231546761048" lon="4.459714952948">
        <ele>1.4</ele>
        <time>2019-04-18T23:55:56Z</time>
      </trkpt>
      <trkpt lat="51.23127669623" lon="4.459657201657">
        <ele>0</ele>
        <time>2019-04-18T23:56:20Z</time>
      </trkpt>
      <trkpt lat="51.23086514494" lon="4.459711851645">
        <ele>0</ele>
        <time>2019-04-18T23:56:57Z</time>
      </trkpt>
      <trkpt lat="51.230661297132" lon="4.460126755695">
        <ele>1.8</ele>
        <time>2019-04-18T23:58:06Z</time>
      </trkpt>
      <trkpt lat="51.230693651266" lon="4.460432024493">
        <ele>1.6</ele>
        <time>2019-04-18T23:58:25Z</time>
      </trkpt>
      <trkpt lat="51.230391483771" lon="4.460853801701">
        <ele>0</ele>
        <time>2019-04-18T23:59:03Z</time>
      </trkpt>
      <trkpt lat="51.23030858678" lon="4.460878947401">
        <ele>1.6</ele>
        <time>2019-04-18T23:59:12Z</time>
      </trkpt>
      <trkpt lat="51.229854036343" lon="4.460960084193">
        <ele>8.8</ele>
        <time>2019-04-18T23:59:50Z</time>
      </trkpt>
      <trkpt lat="51.229727134377" lon="4.460999814399">
        <ele>9</ele>
        <time>2019-04-19T00:00:05Z</time>
      </trkpt>
      <trkpt lat="51.229454890265" lon="4.460913983743">
        <ele>6.4</ele>
        <time>2019-04-19T00:00:33Z</time>
      </trkpt>
      <trkpt lat="51.229393953852" lon="4.460615085189">
        <ele>6.8</ele>
        <time>2019-04-19T00:00:53Z</time>
      </trkpt>
      <trkpt lat="51.229360761528" lon="4.460607876755">
        <ele>6.2</ele>
        <time>2019-04-19T00:00:56Z</time>
      </trkpt>
      <trkpt lat="51.228939403415" lon="4.46053202056">
        <ele>0</ele>
        <time>2019-04-19T00:01:42Z</time>
      </trkpt>
      <trkpt lat="51.228921130873" lon="4.460470162138">
        <ele>0</ele>
        <time>2019-04-19T00:01:45Z</time>
      </trkpt>
      <trkpt lat="51.228822392091" lon="4.460043691066">
        <ele>0</ele>
        <time>2019-04-19T00:02:08Z</time>
      </trkpt>
      <trkpt lat="51.228722144567" lon="4.459607580809">
        <ele>0</ele>
        <time>2019-04-19T00:02:31Z</time>
      </trkpt>
      <trkpt lat="51.22868836551" lon="4.459439523714">
        <ele>6.2</ele>
        <time>2019-04-19T00:03:10Z</time>
      </trkpt>
      <trkpt lat="51.228526343383" lon="4.458773414121">
        <ele>0</ele>
        <time>2019-04-19T00:03:43Z</time>
      </trkpt>
      <trkpt lat="51.228509160488" lon="4.458543414785">
        <ele>0</ele>
        <time>2019-04-19T00:03:54Z</time>
      </trkpt>
      <trkpt lat="51.228650227865" lon="4.458181568162">
        <ele>0</ele>
        <time>2019-04-19T00:04:14Z</time>
      </trkpt>
      <trkpt lat="51.228717618341" lon="4.458183579818">
        <ele>0</ele>
        <time>2019-04-19T00:04:24Z</time>
      </trkpt>
      <trkpt lat="51.229179461031" lon="4.458114177686">
        <ele>8.8</ele>
        <time>2019-04-19T00:04:58Z</time>
      </trkpt>
      <trkpt lat="51.229628982328" lon="4.457926758402">
        <ele>8.2</ele>
        <time>2019-04-19T00:05:29Z</time>
      </trkpt>
      <trkpt lat="51.229737276476" lon="4.457961124192">
        <ele>7.6</ele>
        <time>2019-04-19T00:05:39Z</time>
      </trkpt>
      <trkpt lat="51.229725374178" lon="4.457986186073">
        <ele>7.8</ele>
        <time>2019-04-19T00:05:42Z</time>
      </trkpt>
      <trkpt lat="51.229738282304" lon="4.45795626269">
        <ele>8</ele>
        <time>2019-04-19T00:06:10Z</time>
      </trkpt>
      <trkpt lat="51.229826543711" lon="4.457748307751">
        <ele>4</ele>
        <time>2019-04-19T00:06:27Z</time>
      </trkpt>
      <trkpt lat="51.229779437433" lon="4.457341366506">
        <ele>0.2</ele>
        <time>2019-04-19T00:06:48Z</time>
      </trkpt>
      <trkpt lat="51.229698216822" lon="4.456807690933">
        <ele>4.4</ele>
        <time>2019-04-19T00:07:17Z</time>
      </trkpt>
      <trkpt lat="51.229602495524" lon="4.456659415122">
        <ele>7</ele>
        <time>2019-04-19T00:07:28Z</time>
      </trkpt>
      <trkpt lat="51.229674160769" lon="4.456770475297">
        <ele>8</ele>
        <time>2019-04-19T00:07:46Z</time>
      </trkpt>
      <trkpt lat="51.229846576452" lon="4.457368104767">
        <ele>4.2</ele>
        <time>2019-04-19T00:08:25Z</time>
      </trkpt>
      <trkpt lat="51.229863172614" lon="4.457617214835">
        <ele>0</ele>
        <time>2019-04-19T00:08:38Z</time>
      </trkpt>
      <trkpt lat="51.229844732434" lon="4.457959280174">
        <ele>0</ele>
        <time>2019-04-19T00:08:57Z</time>
      </trkpt>
      <trkpt lat="51.229803661124" lon="4.45800236314">
        <ele>0</ele>
        <time>2019-04-19T00:09:01Z</time>
      </trkpt>
    </trkseg>
  </trk>
</gpx>